createdAt,value
2023-08-28T00:00:58.022Z,0.00
2023-08-28T00:01:58.055Z,0.00
2023-08-28T00:02:58.123Z,0.00
2023-08-28T00:03:59.410Z,0.00
2023-08-28T00:04:57.974Z,0.00
2023-08-28T00:05:57.969Z,0.00
2023-08-28T00:06:57.938Z,0.00
2023-08-28T00:07:57.933Z,0.00
2023-08-28T00:08:57.936Z,0.00
2023-08-28T00:09:57.915Z,0.00
2023-08-28T00:10:57.913Z,0.00
2023-08-28T00:11:57.884Z,0.00
2023-08-28T00:12:57.884Z,0.00
2023-08-28T00:13:57.857Z,0.00
2023-08-28T00:14:57.864Z,0.00
2023-08-28T00:15:57.864Z,0.00
2023-08-28T00:16:58.531Z,0.00
2023-08-28T00:17:57.836Z,0.00
2023-08-28T00:19:00.708Z,0.00
2023-08-28T00:19:57.788Z,0.00
2023-08-28T00:20:57.763Z,0.00
2023-08-28T00:21:57.761Z,0.00
2023-08-28T00:22:57.786Z,0.00
2023-08-28T00:23:57.727Z,0.00
2023-08-28T00:24:57.730Z,0.00
2023-08-28T00:25:57.710Z,0.00
2023-08-28T00:26:57.700Z,0.00
2023-08-28T00:27:57.683Z,0.00
2023-08-28T00:28:57.665Z,0.00
2023-08-28T00:29:57.658Z,0.00
2023-08-28T00:30:57.669Z,0.00
2023-08-28T00:31:57.651Z,0.00
2023-08-28T00:32:57.649Z,0.00
2023-08-28T00:33:57.662Z,0.00
2023-08-28T00:34:57.597Z,0.00
2023-08-28T00:35:57.975Z,0.00
2023-08-28T00:36:57.581Z,0.00
2023-08-28T00:37:57.545Z,0.00
2023-08-28T00:38:57.532Z,0.00
2023-08-28T00:39:57.524Z,0.00
2023-08-28T00:40:57.517Z,0.00
2023-08-28T00:41:57.510Z,0.00
2023-08-28T00:42:57.511Z,0.00
2023-08-28T00:43:57.475Z,0.00
2023-08-28T00:44:57.453Z,0.00
2023-08-28T00:45:57.466Z,0.00
2023-08-28T00:46:57.516Z,0.00
2023-08-28T00:47:57.424Z,0.00
2023-08-28T00:48:57.627Z,0.00
2023-08-28T00:49:57.428Z,0.00
2023-08-28T00:50:57.371Z,0.00
2023-08-28T00:51:57.364Z,0.00
2023-08-28T00:52:57.366Z,0.00
2023-08-28T00:53:57.344Z,0.00
2023-08-28T00:54:57.364Z,0.00
2023-08-28T00:55:58.381Z,0.00
2023-08-28T00:56:57.311Z,0.00
2023-08-28T00:57:57.296Z,0.00
2023-08-28T00:58:57.297Z,0.00
2023-08-28T00:59:57.271Z,0.00
2023-08-28T01:00:57.364Z,0.00
2023-08-28T01:01:57.235Z,0.00
2023-08-28T01:02:57.278Z,0.00
2023-08-28T01:03:57.205Z,0.00
2023-08-28T01:04:58.447Z,0.00
2023-08-28T01:05:57.175Z,0.00
2023-08-28T01:06:57.168Z,0.00
2023-08-28T01:07:57.164Z,0.00
2023-08-28T01:08:57.200Z,0.00
2023-08-28T01:09:57.134Z,0.00
2023-08-28T01:10:57.120Z,0.00
2023-08-28T01:11:58.129Z,0.00
2023-08-28T01:12:57.121Z,0.00
2023-08-28T01:13:57.080Z,0.00
2023-08-28T01:14:57.089Z,0.00
2023-08-28T01:15:57.100Z,0.00
2023-08-28T01:16:59.908Z,0.00
2023-08-28T01:17:57.078Z,0.00
2023-08-28T01:18:57.014Z,0.00
2023-08-28T01:19:57.007Z,0.00
2023-08-28T01:20:57.016Z,0.00
2023-08-28T01:21:56.994Z,0.00
2023-08-28T01:22:56.968Z,0.00
2023-08-28T01:23:57.701Z,0.00
2023-08-28T01:24:56.939Z,0.00
2023-08-28T01:25:58.360Z,0.00
2023-08-28T01:26:57.153Z,0.00
2023-08-28T01:27:56.903Z,0.00
2023-08-28T01:28:56.893Z,0.00
2023-08-28T01:29:56.881Z,0.00
2023-08-28T01:30:56.904Z,0.00
2023-08-28T01:31:56.855Z,0.00
2023-08-28T01:32:56.921Z,0.00
2023-08-28T01:33:56.822Z,0.00
2023-08-28T01:34:56.808Z,0.00
2023-08-28T01:35:56.792Z,0.00
2023-08-28T01:36:56.783Z,0.00
2023-08-28T01:37:56.772Z,0.00
2023-08-28T01:38:56.792Z,0.00
2023-08-28T01:39:56.732Z,0.00
2023-08-28T01:40:56.730Z,0.00
2023-08-28T01:41:56.721Z,0.00
2023-08-28T01:42:57.460Z,0.00
2023-08-28T01:43:56.699Z,0.00
2023-08-28T01:44:57.855Z,0.00
2023-08-28T01:45:56.697Z,0.00
2023-08-28T01:46:56.680Z,0.00
2023-08-28T01:47:56.747Z,0.00
2023-08-28T01:48:56.633Z,0.00
2023-08-28T01:49:56.638Z,0.00
2023-08-28T01:50:56.609Z,0.00
2023-08-28T01:51:56.589Z,0.00
2023-08-28T01:52:56.567Z,0.00
2023-08-28T01:53:56.567Z,0.00
2023-08-28T01:54:56.541Z,0.00
2023-08-28T01:55:56.582Z,0.00
2023-08-28T01:56:56.544Z,0.00
2023-08-28T01:57:56.523Z,0.00
2023-08-28T01:58:56.530Z,0.00
2023-08-28T01:59:56.479Z,0.00
2023-08-28T02:00:56.498Z,0.00
2023-08-28T02:01:57.656Z,0.00
2023-08-28T02:02:56.504Z,0.00
2023-08-28T02:03:56.427Z,0.00
2023-08-28T02:04:56.433Z,0.00
2023-08-28T02:05:56.406Z,0.00
2023-08-28T02:06:56.407Z,0.00
2023-08-28T02:07:56.426Z,0.00
2023-08-28T02:08:56.373Z,0.00
2023-08-28T02:09:56.350Z,0.00
2023-08-28T02:10:56.334Z,0.00
2023-08-28T02:11:56.321Z,0.00
2023-08-28T02:12:56.316Z,0.00
2023-08-28T02:13:56.317Z,0.00
2023-08-28T02:14:56.290Z,0.00
2023-08-28T02:15:56.266Z,0.00
2023-08-28T02:16:56.308Z,0.00
2023-08-28T02:17:56.295Z,0.00
2023-08-28T02:18:59.904Z,0.00
2023-08-28T02:19:56.239Z,0.00
2023-08-28T02:20:56.210Z,0.00
2023-08-28T02:21:56.197Z,0.00
2023-08-28T02:22:56.211Z,0.00
2023-08-28T02:23:56.180Z,0.00
2023-08-28T02:24:56.157Z,0.00
2023-08-28T02:25:56.134Z,0.00
2023-08-28T02:26:56.143Z,0.00
2023-08-28T02:27:56.199Z,0.00
2023-08-28T02:28:56.116Z,0.00
2023-08-28T02:29:56.093Z,0.00
2023-08-28T02:30:56.103Z,0.00
2023-08-28T02:31:56.076Z,0.00
2023-08-28T02:32:56.118Z,0.00
2023-08-28T02:33:56.073Z,0.00
2023-08-28T02:34:56.027Z,0.00
2023-08-28T02:35:56.925Z,0.00
2023-08-28T02:36:55.997Z,0.00
2023-08-28T02:37:55.988Z,0.00
2023-08-28T02:38:55.981Z,0.00
2023-08-28T02:39:55.964Z,0.00
2023-08-28T02:40:55.949Z,0.00
2023-08-28T02:41:55.961Z,0.00
2023-08-28T02:42:55.925Z,0.00
2023-08-28T02:43:55.954Z,0.00
2023-08-28T02:44:55.908Z,0.00
2023-08-28T02:45:55.939Z,0.00
2023-08-28T02:46:55.870Z,0.00
2023-08-28T02:47:56.002Z,0.00
2023-08-28T02:48:55.935Z,0.00
2023-08-28T02:49:55.868Z,0.00
2023-08-28T02:50:55.817Z,0.00
2023-08-28T02:51:55.862Z,0.00
2023-08-28T02:52:55.796Z,0.00
2023-08-28T02:53:55.775Z,0.00
2023-08-28T02:54:55.776Z,0.00
2023-08-28T02:55:55.755Z,0.00
2023-08-28T02:56:55.747Z,0.00
2023-08-28T02:57:55.734Z,0.00
2023-08-28T02:58:55.713Z,0.00
2023-08-28T02:59:55.716Z,0.00
2023-08-28T03:00:55.693Z,0.00
2023-08-28T03:01:55.742Z,0.00
2023-08-28T03:02:55.782Z,0.00
2023-08-28T03:03:56.536Z,0.00
2023-08-28T03:04:55.683Z,0.00
2023-08-28T03:05:55.633Z,0.00
2023-08-28T03:06:55.608Z,0.00
2023-08-28T03:07:55.596Z,0.00
2023-08-28T03:08:55.590Z,0.00
2023-08-28T03:09:55.570Z,0.00
2023-08-28T03:10:55.576Z,0.00
2023-08-28T03:11:55.543Z,0.00
2023-08-28T03:12:55.567Z,0.00
2023-08-28T03:13:55.521Z,0.00
2023-08-28T03:14:55.514Z,0.00
2023-08-28T03:15:55.568Z,0.00
2023-08-28T03:16:55.499Z,0.00
2023-08-28T03:17:55.544Z,0.00
2023-08-28T03:18:55.603Z,0.00
2023-08-28T03:19:55.613Z,0.00
2023-08-28T03:20:55.456Z,0.00
2023-08-28T03:21:55.959Z,0.00
2023-08-28T03:22:56.304Z,0.00
2023-08-28T03:23:55.436Z,0.00
2023-08-28T03:24:55.392Z,0.00
2023-08-28T03:25:55.379Z,0.00
2023-08-28T03:26:55.496Z,0.00
2023-08-28T03:27:55.460Z,0.00
2023-08-28T03:28:55.372Z,0.00
2023-08-28T03:29:55.345Z,0.00
2023-08-28T03:32:07.514Z,0.00
2023-08-28T03:33:07.552Z,0.00
2023-08-28T03:34:07.249Z,0.00
2023-08-28T03:35:07.231Z,0.00
2023-08-28T03:36:07.237Z,0.00
2023-08-28T03:37:07.220Z,0.00
2023-08-28T03:38:07.191Z,0.00
2023-08-28T03:39:07.215Z,0.00
2023-08-28T03:40:07.176Z,0.00
2023-08-28T03:41:07.146Z,0.00
2023-08-28T03:42:07.137Z,0.00
2023-08-28T03:43:07.135Z,0.00
2023-08-28T03:44:07.105Z,0.00
2023-08-28T03:45:07.127Z,0.00
2023-08-28T03:46:07.171Z,0.00
2023-08-28T03:47:07.117Z,0.00
2023-08-28T03:48:07.091Z,0.00
2023-08-28T03:49:07.059Z,0.00
2023-08-28T03:50:07.032Z,0.00
2023-08-28T03:51:07.023Z,0.00
2023-08-28T03:52:07.015Z,0.00
2023-08-28T03:53:07.025Z,0.00
2023-08-28T03:54:06.986Z,0.00
2023-08-28T03:55:06.984Z,0.00
2023-08-28T03:56:06.956Z,0.00
2023-08-28T03:57:06.940Z,0.00
2023-08-28T03:58:06.929Z,0.00
2023-08-28T03:59:06.926Z,0.00
2023-08-28T04:00:06.944Z,0.00
2023-08-28T04:01:06.916Z,0.00
2023-08-28T04:02:06.893Z,0.00
2023-08-28T04:03:07.162Z,0.00
2023-08-28T04:04:06.861Z,0.00
2023-08-28T04:05:08.017Z,0.00
2023-08-28T04:06:06.830Z,0.00
2023-08-28T04:07:06.827Z,0.00
2023-08-28T04:08:06.796Z,0.00
2023-08-28T04:09:06.781Z,0.00
2023-08-28T04:10:06.786Z,0.00
2023-08-28T04:11:06.788Z,0.00
2023-08-28T04:12:06.765Z,0.00
2023-08-28T04:13:06.869Z,0.00
2023-08-28T04:14:06.716Z,0.00
2023-08-28T04:15:06.704Z,0.00
2023-08-28T04:16:06.754Z,0.00
2023-08-28T04:17:06.703Z,0.00
2023-08-28T04:18:06.743Z,4.00
2023-08-28T04:19:06.787Z,4.00
2023-08-28T04:20:06.650Z,0.00
2023-08-28T04:21:06.645Z,0.00
2023-08-28T04:22:06.618Z,0.00
2023-08-28T04:23:06.637Z,4.00
2023-08-28T04:24:06.594Z,4.00
2023-08-28T04:25:06.584Z,4.00
2023-08-28T04:26:06.598Z,4.00
2023-08-28T04:27:06.545Z,4.00
2023-08-28T04:28:06.531Z,4.00
2023-08-28T04:29:06.531Z,8.00
2023-08-28T04:30:06.510Z,4.00
2023-08-28T04:31:06.504Z,4.00
2023-08-28T04:32:06.497Z,8.00
2023-08-28T04:33:06.669Z,4.00
2023-08-28T04:34:06.476Z,8.00
2023-08-28T04:35:06.451Z,12.00
2023-08-28T04:36:06.464Z,12.00
2023-08-28T04:37:06.443Z,12.00
2023-08-28T04:38:06.429Z,12.00
2023-08-28T04:39:06.392Z,12.00
2023-08-28T04:40:06.370Z,12.00
2023-08-28T04:41:06.362Z,16.00
2023-08-28T04:42:06.353Z,16.00
2023-08-28T04:43:06.441Z,20.00
2023-08-28T04:44:06.349Z,16.00
2023-08-28T04:45:06.323Z,20.00
2023-08-28T04:46:06.320Z,20.00
2023-08-28T04:47:06.283Z,24.00
2023-08-28T04:48:06.309Z,20.00
2023-08-28T04:49:06.261Z,24.00
2023-08-28T04:50:06.270Z,28.00
2023-08-28T04:51:06.232Z,28.00
2023-08-28T04:52:06.216Z,28.00
2023-08-28T04:53:06.253Z,32.00
2023-08-28T04:54:06.191Z,32.00
2023-08-28T04:55:06.185Z,32.00
2023-08-28T04:56:06.172Z,36.00
2023-08-28T04:57:06.156Z,36.00
2023-08-28T04:58:06.139Z,40.00
2023-08-28T04:59:06.154Z,44.00
2023-08-28T05:00:06.144Z,44.00
2023-08-28T05:01:06.230Z,48.00
2023-08-28T05:02:06.101Z,48.00
2023-08-28T05:03:06.420Z,52.00
2023-08-28T05:04:06.113Z,48.00
2023-08-28T05:05:06.057Z,56.00
2023-08-28T05:06:06.042Z,56.00
2023-08-28T05:07:06.061Z,64.00
2023-08-28T05:08:06.007Z,68.00
2023-08-28T05:09:06.007Z,68.00
2023-08-28T05:10:05.996Z,72.00
2023-08-28T05:11:05.979Z,76.00
2023-08-28T05:12:05.970Z,80.00
2023-08-28T05:13:06.228Z,80.00
2023-08-28T05:14:05.983Z,80.00
2023-08-28T05:15:05.925Z,84.00
2023-08-28T05:16:05.953Z,84.00
2023-08-28T05:17:05.905Z,88.00
2023-08-28T05:18:05.899Z,88.00
2023-08-28T05:19:05.875Z,92.00
2023-08-28T05:20:05.908Z,92.00
2023-08-28T05:21:05.840Z,100.00
2023-08-28T05:22:05.841Z,100.00
2023-08-28T05:23:06.121Z,104.00
2023-08-28T05:24:05.825Z,96.00
2023-08-28T05:25:05.796Z,104.00
2023-08-28T05:26:05.786Z,108.00
2023-08-28T05:27:05.765Z,108.00
2023-08-28T05:28:05.749Z,112.00
2023-08-28T05:29:05.741Z,108.00
2023-08-28T05:30:05.774Z,104.00
2023-08-28T05:31:05.772Z,112.00
2023-08-28T05:32:05.700Z,112.00
2023-08-28T05:33:06.017Z,116.00
2023-08-28T05:34:05.676Z,120.00
2023-08-28T05:35:05.658Z,124.00
2023-08-28T05:36:05.655Z,128.00
2023-08-28T05:37:05.630Z,128.00
2023-08-28T05:38:05.644Z,124.00
2023-08-28T05:39:05.629Z,116.00
2023-08-28T05:40:07.995Z,116.00
2023-08-28T05:41:05.625Z,128.00
2023-08-28T05:42:05.607Z,136.00
2023-08-28T05:43:06.198Z,128.00
2023-08-28T05:44:05.559Z,128.00
2023-08-28T05:45:05.534Z,128.00
2023-08-28T05:46:05.529Z,144.00
2023-08-28T05:47:05.522Z,148.00
2023-08-28T05:48:05.497Z,156.00
2023-08-28T05:49:05.589Z,152.00
2023-08-28T05:50:05.458Z,164.00
2023-08-28T05:51:05.460Z,168.00
2023-08-28T05:52:05.438Z,172.00
2023-08-28T05:53:05.572Z,176.00
2023-08-28T05:54:05.413Z,180.00
2023-08-28T05:55:05.398Z,180.00
2023-08-28T05:56:05.388Z,188.00
2023-08-28T05:57:05.361Z,196.00
2023-08-28T05:58:05.412Z,196.00
2023-08-28T05:59:05.341Z,200.00
2023-08-28T06:00:05.367Z,200.00
2023-08-28T06:01:05.442Z,196.00
2023-08-28T06:02:05.293Z,188.00
2023-08-28T06:03:05.740Z,188.00
2023-08-28T06:04:05.305Z,192.00
2023-08-28T06:05:05.247Z,192.00
2023-08-28T06:06:05.236Z,192.00
2023-08-28T06:07:05.270Z,188.00
2023-08-28T06:08:05.216Z,208.00
2023-08-28T06:09:05.277Z,208.00
2023-08-28T06:10:05.193Z,216.00
2023-08-28T06:11:05.181Z,212.00
2023-08-28T06:12:05.175Z,224.00
2023-08-28T06:13:05.451Z,228.00
2023-08-28T06:14:05.138Z,228.00
2023-08-28T06:15:05.114Z,228.00
2023-08-28T06:16:05.109Z,236.00
2023-08-28T06:17:05.096Z,244.00
2023-08-28T06:18:05.116Z,252.00
2023-08-28T06:19:05.143Z,260.00
2023-08-28T06:20:05.063Z,276.00
2023-08-28T06:21:05.041Z,284.00
2023-08-28T06:22:05.075Z,308.00
2023-08-28T06:23:05.360Z,328.00
2023-08-28T06:24:05.008Z,344.00
2023-08-28T06:25:05.014Z,352.00
2023-08-28T06:26:04.982Z,356.00
2023-08-28T06:27:04.987Z,348.00
2023-08-28T06:28:04.948Z,372.00
2023-08-28T06:29:04.932Z,384.00
2023-08-28T06:30:04.932Z,368.00
2023-08-28T06:31:04.934Z,404.00
2023-08-28T06:32:04.924Z,432.00
2023-08-28T06:33:05.107Z,436.00
2023-08-28T06:34:04.873Z,460.00
2023-08-28T06:35:04.857Z,460.00
2023-08-28T06:36:04.851Z,472.00
2023-08-28T06:37:04.852Z,548.00
2023-08-28T06:38:04.828Z,524.00
2023-08-28T06:39:04.872Z,556.00
2023-08-28T06:40:04.853Z,592.00
2023-08-28T06:41:04.782Z,624.00
2023-08-28T06:42:04.778Z,468.00
2023-08-28T06:43:05.081Z,320.00
2023-08-28T06:44:04.743Z,276.00
2023-08-28T06:45:04.755Z,272.00
2023-08-28T06:46:04.727Z,272.00
2023-08-28T06:47:04.751Z,276.00
2023-08-28T06:48:04.743Z,564.00
2023-08-28T06:49:04.682Z,580.00
2023-08-28T06:50:04.669Z,588.00
2023-08-28T06:51:04.656Z,524.00
2023-08-28T06:52:04.639Z,640.00
2023-08-28T06:53:04.903Z,600.00
2023-08-28T06:54:04.612Z,604.00
2023-08-28T06:55:04.597Z,588.00
2023-08-28T06:56:04.593Z,432.00
2023-08-28T06:57:04.582Z,456.00
2023-08-28T06:58:04.652Z,604.00
2023-08-28T06:59:04.543Z,520.00
2023-08-28T07:00:04.590Z,584.00
2023-08-28T07:01:04.544Z,700.00
2023-08-28T07:02:04.507Z,740.00
2023-08-28T07:03:04.920Z,732.00
2023-08-28T07:04:04.498Z,716.00
2023-08-28T07:05:04.466Z,660.00
2023-08-28T07:06:04.502Z,720.00
2023-08-28T07:07:04.445Z,724.00
2023-08-28T07:08:04.430Z,756.00
2023-08-28T07:09:04.401Z,712.00
2023-08-28T07:10:04.401Z,644.00
2023-08-28T07:11:04.384Z,636.00
2023-08-28T07:12:04.434Z,676.00
2023-08-28T07:13:04.596Z,652.00
2023-08-28T07:14:04.360Z,620.00
2023-08-28T07:15:04.347Z,708.00
2023-08-28T07:16:04.343Z,760.00
2023-08-28T07:17:04.316Z,748.00
2023-08-28T07:18:04.405Z,668.00
2023-08-28T07:19:04.274Z,608.00
2023-08-28T07:20:04.271Z,784.00
2023-08-28T07:21:04.789Z,772.00
2023-08-28T07:22:04.241Z,816.00
2023-08-28T07:23:04.487Z,796.00
2023-08-28T07:24:04.251Z,768.00
2023-08-28T07:25:04.207Z,820.00
2023-08-28T07:26:04.203Z,864.00
2023-08-28T07:27:04.204Z,868.00
2023-08-28T07:28:04.153Z,856.00
2023-08-28T07:29:04.150Z,760.00
2023-08-28T07:30:04.178Z,824.00
2023-08-28T07:31:04.170Z,876.00
2023-08-28T07:32:04.113Z,868.00
2023-08-28T07:33:04.497Z,848.00
2023-08-28T07:34:04.080Z,864.00
2023-08-28T07:35:04.068Z,900.00
2023-08-28T07:36:04.085Z,1028.00
2023-08-28T07:37:04.048Z,872.00
2023-08-28T07:38:04.030Z,876.00
2023-08-28T07:39:04.012Z,948.00
2023-08-28T07:40:04.006Z,860.00
2023-08-28T07:41:03.989Z,880.00
2023-08-28T07:42:04.000Z,844.00
2023-08-28T07:43:04.267Z,856.00
2023-08-28T07:44:03.956Z,816.00
2023-08-28T07:45:03.931Z,832.00
2023-08-28T07:46:03.982Z,952.00
2023-08-28T07:47:03.902Z,1004.00
2023-08-28T07:48:04.093Z,1056.00
2023-08-28T07:49:03.879Z,1076.00
2023-08-28T07:50:03.882Z,1076.00
2023-08-28T07:51:03.857Z,1088.00
2023-08-28T07:52:03.867Z,1168.00
2023-08-28T07:53:04.104Z,1128.00
2023-08-28T07:54:03.825Z,1080.00
2023-08-28T07:55:05.577Z,1012.00
2023-08-28T07:56:03.798Z,1148.00
2023-08-28T07:57:03.841Z,1184.00
2023-08-28T07:58:03.778Z,1360.00
2023-08-28T07:59:03.760Z,1372.00
2023-08-28T08:00:03.762Z,1376.00
2023-08-28T08:01:03.726Z,1416.00
2023-08-28T08:02:03.720Z,1488.00
2023-08-28T08:03:03.998Z,1348.00
2023-08-28T08:04:03.758Z,1268.00
2023-08-28T08:05:03.681Z,1248.00
2023-08-28T08:06:03.663Z,1220.00
2023-08-28T08:07:03.662Z,1372.00
2023-08-28T08:08:03.645Z,1384.00
2023-08-28T08:09:03.634Z,1284.00
2023-08-28T08:10:03.777Z,1164.00
2023-08-28T08:11:03.601Z,1352.00
2023-08-28T08:12:03.593Z,1476.00
2023-08-28T08:13:03.795Z,1532.00
2023-08-28T08:14:03.562Z,1480.00
2023-08-28T08:15:03.543Z,1484.00
2023-08-28T08:16:03.562Z,1340.00
2023-08-28T08:17:03.525Z,536.00
2023-08-28T08:18:03.528Z,476.00
2023-08-28T08:19:03.494Z,448.00
2023-08-28T08:20:03.493Z,480.00
2023-08-28T08:21:03.460Z,548.00
2023-08-28T08:22:03.474Z,568.00
2023-08-28T08:23:03.654Z,744.00
2023-08-28T08:24:03.458Z,624.00
2023-08-28T08:25:03.429Z,1400.00
2023-08-28T08:26:03.399Z,604.00
2023-08-28T08:27:03.393Z,588.00
2023-08-28T08:28:03.377Z,560.00
2023-08-28T08:29:05.131Z,540.00
2023-08-28T08:30:03.380Z,532.00
2023-08-28T08:31:03.343Z,548.00
2023-08-28T08:32:03.338Z,576.00
2023-08-28T08:33:03.801Z,632.00
2023-08-28T08:34:03.295Z,660.00
2023-08-28T08:35:03.278Z,652.00
2023-08-28T08:36:03.298Z,676.00
2023-08-28T08:37:03.253Z,1000.00
2023-08-28T08:38:03.242Z,1300.00
2023-08-28T08:39:03.245Z,1256.00
2023-08-28T08:40:03.219Z,1076.00
2023-08-28T08:41:03.204Z,944.00
2023-08-28T08:42:03.222Z,632.00
2023-08-28T08:43:03.472Z,532.00
2023-08-28T08:44:03.151Z,528.00
2023-08-28T08:45:03.823Z,560.00
2023-08-28T08:46:03.218Z,588.00
2023-08-28T08:47:03.125Z,636.00
2023-08-28T08:48:03.134Z,652.00
2023-08-28T08:49:03.099Z,672.00
2023-08-28T08:50:03.104Z,564.00
2023-08-28T08:51:03.138Z,588.00
2023-08-28T08:52:03.050Z,568.00
2023-08-28T08:53:03.648Z,592.00
2023-08-28T08:54:03.022Z,536.00
2023-08-28T08:55:03.017Z,512.00
2023-08-28T08:56:03.028Z,512.00
2023-08-28T08:57:03.004Z,500.00
2023-08-28T08:58:03.208Z,496.00
2023-08-28T08:59:02.952Z,500.00
2023-08-28T09:00:02.939Z,512.00
2023-08-28T09:01:02.996Z,632.00
2023-08-28T09:02:02.908Z,988.00
2023-08-28T09:03:03.315Z,1120.00
2023-08-28T09:04:02.927Z,824.00
2023-08-28T09:05:02.873Z,1104.00
2023-08-28T09:06:02.869Z,1176.00
2023-08-28T09:07:02.841Z,1208.00
2023-08-28T09:08:03.201Z,1304.00
2023-08-28T09:09:02.814Z,1356.00
2023-08-28T09:10:02.823Z,1448.00
2023-08-28T09:11:02.795Z,1352.00
2023-08-28T09:12:02.778Z,1108.00
2023-08-28T09:13:03.125Z,1080.00
2023-08-28T09:14:02.748Z,1200.00
2023-08-28T09:15:02.724Z,1152.00
2023-08-28T09:16:02.825Z,1168.00
2023-08-28T09:17:02.716Z,1164.00
2023-08-28T09:18:02.740Z,1236.00
2023-08-28T09:19:02.683Z,832.00
2023-08-28T09:20:02.673Z,1280.00
2023-08-28T09:21:02.649Z,1164.00
2023-08-28T09:22:02.665Z,1460.00
2023-08-28T09:23:02.644Z,1600.00
2023-08-28T09:24:02.667Z,1512.00
2023-08-28T09:25:02.601Z,1604.00
2023-08-28T09:26:02.585Z,1360.00
2023-08-28T09:27:02.567Z,1404.00
2023-08-28T09:28:02.567Z,1032.00
2023-08-28T09:29:02.549Z,1404.00
2023-08-28T09:30:02.546Z,1352.00
2023-08-28T09:31:02.544Z,1324.00
2023-08-28T09:32:02.514Z,1460.00
2023-08-28T09:33:03.360Z,1396.00
2023-08-28T09:34:09.134Z,1244.00
2023-08-28T09:35:03.474Z,1120.00
2023-08-28T09:36:02.475Z,1152.00
2023-08-28T09:37:02.429Z,1252.00
2023-08-28T09:38:02.438Z,852.00
2023-08-28T09:39:02.451Z,1184.00
2023-08-28T09:40:02.401Z,1076.00
2023-08-28T09:41:02.377Z,840.00
2023-08-28T09:42:02.381Z,604.00
2023-08-28T09:43:02.996Z,468.00
2023-08-28T09:44:02.349Z,464.00
2023-08-28T09:45:02.360Z,484.00
2023-08-28T09:46:02.361Z,596.00
2023-08-28T09:47:02.316Z,536.00
2023-08-28T09:48:02.314Z,540.00
2023-08-28T09:49:02.321Z,636.00
2023-08-28T09:50:02.278Z,560.00
2023-08-28T09:51:02.254Z,540.00
2023-08-28T09:52:02.247Z,532.00
2023-08-28T09:53:02.509Z,532.00
2023-08-28T09:54:02.223Z,548.00
2023-08-28T09:55:02.211Z,596.00
2023-08-28T09:56:02.202Z,660.00
2023-08-28T09:57:02.183Z,744.00
2023-08-28T09:58:02.174Z,808.00
2023-08-28T09:59:02.144Z,828.00
2023-08-28T10:00:02.184Z,872.00
2023-08-28T10:01:02.200Z,916.00
2023-08-28T10:02:12.725Z,948.00
2023-08-28T10:03:03.243Z,1100.00
2023-08-28T10:04:02.249Z,1084.00
2023-08-28T10:05:02.070Z,1100.00
2023-08-28T10:06:02.104Z,1060.00
2023-08-28T10:07:02.328Z,1044.00
2023-08-28T10:08:02.154Z,1056.00
2023-08-28T10:09:02.047Z,1064.00
2023-08-28T10:10:04.106Z,1104.00
2023-08-28T10:11:01.994Z,1144.00
2023-08-28T10:12:01.992Z,1100.00
2023-08-28T10:13:02.340Z,1064.00
2023-08-28T10:14:01.960Z,988.00
2023-08-28T10:15:01.963Z,920.00
2023-08-28T10:16:01.934Z,880.00
2023-08-28T10:17:01.950Z,796.00
2023-08-28T10:18:01.923Z,792.00
2023-08-28T10:19:01.923Z,884.00
2023-08-28T10:20:01.892Z,864.00
2023-08-28T10:21:01.870Z,832.00
2023-08-28T10:22:01.851Z,764.00
2023-08-28T10:23:02.273Z,748.00
2023-08-28T10:24:01.822Z,748.00
2023-08-28T10:25:01.814Z,760.00
2023-08-28T10:26:01.800Z,824.00
2023-08-28T10:27:01.793Z,840.00
2023-08-28T10:28:01.771Z,840.00
2023-08-28T10:29:01.762Z,844.00
2023-08-28T10:30:01.752Z,916.00
2023-08-28T10:31:01.850Z,908.00
2023-08-28T10:32:01.715Z,912.00
2023-08-28T10:33:01.753Z,896.00
2023-08-28T10:34:01.696Z,932.00
2023-08-28T10:35:01.698Z,976.00
2023-08-28T10:36:01.699Z,968.00
2023-08-28T10:37:09.741Z,1004.00
2023-08-28T10:38:02.648Z,1008.00
2023-08-28T10:39:01.959Z,996.00
2023-08-28T10:40:01.619Z,996.00
2023-08-28T10:41:01.626Z,972.00
2023-08-28T10:42:01.602Z,1028.00
2023-08-28T10:43:01.943Z,1044.00
2023-08-28T10:44:01.569Z,980.00
2023-08-28T10:45:02.964Z,952.00
2023-08-28T10:46:01.567Z,960.00
2023-08-28T10:47:01.525Z,1008.00
2023-08-28T10:48:01.568Z,992.00
2023-08-28T10:49:01.505Z,976.00
2023-08-28T10:50:01.511Z,972.00
2023-08-28T10:51:01.470Z,996.00
2023-08-28T10:52:01.477Z,996.00
2023-08-28T10:53:01.443Z,964.00
2023-08-28T10:54:01.438Z,1008.00
2023-08-28T10:55:04.054Z,1160.00
2023-08-28T10:56:01.417Z,1096.00
2023-08-28T10:57:01.420Z,1124.00
2023-08-28T10:58:01.384Z,1232.00
2023-08-28T10:59:01.379Z,1172.00
2023-08-28T11:00:01.366Z,1124.00
2023-08-28T11:01:01.428Z,1204.00
2023-08-28T11:02:01.325Z,1036.00
2023-08-28T11:03:01.893Z,1056.00
2023-08-28T11:04:01.311Z,928.00
2023-08-28T11:05:01.325Z,776.00
2023-08-28T11:06:01.285Z,704.00
2023-08-28T11:07:01.308Z,672.00
2023-08-28T11:08:01.252Z,732.00
2023-08-28T11:09:01.282Z,676.00
2023-08-28T11:10:01.228Z,680.00
2023-08-28T11:11:01.213Z,680.00
2023-08-28T11:12:01.441Z,724.00
2023-08-28T11:13:01.324Z,724.00
2023-08-28T11:14:01.169Z,728.00
2023-08-28T11:15:01.186Z,744.00
2023-08-28T11:16:01.159Z,752.00
2023-08-28T11:17:01.122Z,764.00
2023-08-28T11:18:01.156Z,760.00
2023-08-28T11:19:01.106Z,760.00
2023-08-28T11:20:01.092Z,784.00
2023-08-28T11:21:01.172Z,824.00
2023-08-28T11:22:01.062Z,872.00
2023-08-28T11:23:01.432Z,948.00
2023-08-28T11:24:01.043Z,1404.00
2023-08-28T11:25:01.026Z,1328.00
2023-08-28T11:26:01.022Z,1292.00
2023-08-28T11:27:01.026Z,1376.00
2023-08-28T11:28:00.988Z,1360.00
2023-08-28T11:29:00.982Z,1420.00
2023-08-28T11:30:00.960Z,1648.00
2023-08-28T11:31:01.026Z,1484.00
2023-08-28T11:32:00.949Z,1460.00
2023-08-28T11:33:00.985Z,1600.00
2023-08-28T11:34:00.931Z,1764.00
2023-08-28T11:35:00.889Z,1368.00
2023-08-28T11:36:00.906Z,852.00
2023-08-28T11:37:00.878Z,820.00
2023-08-28T11:38:00.852Z,868.00
2023-08-28T11:39:00.872Z,848.00
2023-08-28T11:40:00.855Z,828.00
2023-08-28T11:41:00.821Z,840.00
2023-08-28T11:42:00.802Z,864.00
2023-08-28T11:43:00.785Z,860.00
2023-08-28T11:44:00.777Z,876.00
2023-08-28T11:45:00.772Z,844.00
2023-08-28T11:46:00.802Z,788.00
2023-08-28T11:47:00.757Z,740.00
2023-08-28T11:48:00.778Z,712.00
2023-08-28T11:49:01.503Z,700.00
2023-08-28T11:50:00.718Z,680.00
2023-08-28T11:51:01.450Z,660.00
2023-08-28T11:52:00.670Z,652.00
2023-08-28T11:53:00.663Z,652.00
2023-08-28T11:54:00.646Z,688.00
2023-08-28T11:55:01.384Z,708.00
2023-08-28T11:56:00.646Z,688.00
2023-08-28T11:57:00.613Z,668.00
2023-08-28T11:58:00.608Z,648.00
2023-08-28T11:59:00.575Z,636.00
2023-08-28T12:00:00.574Z,624.00
2023-08-28T12:01:00.556Z,632.00
2023-08-28T12:02:00.639Z,648.00
2023-08-28T12:03:01.344Z,676.00
2023-08-28T12:04:00.562Z,724.00
2023-08-28T12:05:00.498Z,764.00
2023-08-28T12:06:00.483Z,788.00
2023-08-28T12:07:00.472Z,812.00
2023-08-28T12:08:00.489Z,840.00
2023-08-28T12:09:00.451Z,872.00
2023-08-28T12:10:00.441Z,912.00
2023-08-28T12:11:01.154Z,960.00
2023-08-28T12:12:00.437Z,1020.00
2023-08-28T12:13:00.467Z,1092.00
2023-08-28T12:14:00.400Z,1100.00
2023-08-28T12:15:00.378Z,1100.00
2023-08-28T12:16:00.409Z,1056.00
2023-08-28T12:17:00.345Z,1028.00
2023-08-28T12:18:00.366Z,1020.00
2023-08-28T12:19:00.313Z,1000.00
2023-08-28T12:20:00.368Z,992.00
2023-08-28T12:21:00.305Z,988.00
2023-08-28T12:22:00.316Z,1008.00
2023-08-28T12:23:00.278Z,1036.00
2023-08-28T12:24:00.251Z,1060.00
2023-08-28T12:25:00.267Z,1072.00
2023-08-28T12:26:00.245Z,1092.00
2023-08-28T12:27:00.221Z,1156.00
2023-08-28T12:28:00.199Z,1228.00
2023-08-28T12:29:00.200Z,1204.00
2023-08-28T12:30:00.213Z,1164.00
2023-08-28T12:31:00.192Z,1144.00
2023-08-28T12:32:00.170Z,1144.00
2023-08-28T12:33:00.157Z,1112.00
2023-08-28T12:34:00.117Z,1252.00
2023-08-28T12:35:00.134Z,1116.00
2023-08-28T12:36:00.113Z,1112.00
2023-08-28T12:37:00.085Z,1184.00
2023-08-28T12:38:00.070Z,1200.00
2023-08-28T12:39:00.062Z,1256.00
2023-08-28T12:40:00.046Z,1276.00
2023-08-28T12:41:00.024Z,1516.00
2023-08-28T12:42:00.019Z,1460.00
2023-08-28T12:42:59.999Z,1424.00
2023-08-28T12:44:00.035Z,1392.00